createdAt,value
2017-10-12T00:01:22.560Z,12.90
2017-10-12T00:03:48.746Z,12.90
2017-10-12T00:06:14.950Z,12.90
2017-10-12T00:08:41.901Z,12.90
2017-10-12T00:11:08.791Z,12.90
2017-10-12T00:13:34.948Z,13.00
2017-10-12T00:16:01.195Z,12.90
2017-10-12T00:18:27.411Z,13.00
2017-10-12T00:20:53.592Z,13.00
2017-10-12T00:23:19.834Z,13.00
2017-10-12T00:25:46.044Z,13.00
2017-10-12T00:28:12.250Z,13.00
2017-10-12T00:30:38.499Z,13.00
2017-10-12T00:33:05.447Z,13.00
2017-10-12T00:35:31.592Z,13.00
2017-10-12T00:37:58.729Z,13.00
2017-10-12T00:40:24.993Z,13.00
2017-10-12T00:42:51.314Z,12.90
2017-10-12T00:45:18.423Z,12.80
2017-10-12T00:47:45.402Z,12.80
2017-10-12T00:50:12.310Z,12.90
2017-10-12T00:52:39.270Z,12.80
2017-10-12T00:55:05.496Z,12.80
2017-10-12T00:57:31.704Z,12.90
2017-10-12T00:59:57.936Z,12.80
2017-10-12T01:02:24.182Z,12.80
2017-10-12T01:04:50.464Z,12.80
2017-10-12T01:07:16.671Z,12.80
2017-10-12T01:09:42.907Z,12.70
2017-10-12T01:12:09.107Z,12.70
2017-10-12T01:14:35.291Z,12.70
2017-10-12T01:17:01.495Z,12.70
2017-10-12T01:19:27.685Z,12.60
2017-10-12T01:21:54.676Z,12.50
2017-10-12T01:24:20.913Z,12.50
2017-10-12T01:26:47.127Z,12.50
2017-10-12T01:29:13.331Z,12.60
2017-10-12T01:31:39.521Z,12.50
2017-10-12T01:34:05.804Z,12.50
2017-10-12T01:36:31.982Z,12.50
2017-10-12T01:38:58.167Z,12.50
2017-10-12T01:41:24.327Z,12.50
2017-10-12T01:43:50.491Z,12.50
2017-10-12T01:46:16.655Z,12.50
2017-10-12T01:48:55.947Z,12.60
2017-10-12T01:51:22.178Z,12.50
2017-10-12T01:53:48.407Z,12.50
2017-10-12T01:56:15.311Z,12.50
2017-10-12T01:58:41.568Z,12.50
2017-10-12T02:01:08.497Z,12.50
2017-10-12T02:03:35.411Z,12.50
2017-10-12T02:06:01.612Z,12.50
2017-10-12T02:08:27.803Z,12.50
2017-10-12T02:10:54.038Z,12.50
2017-10-12T02:13:21.056Z,12.50
2017-10-12T02:15:47.302Z,12.50
2017-10-12T02:18:14.275Z,12.50
2017-10-12T02:20:40.487Z,12.50
2017-10-12T02:23:07.443Z,12.60
2017-10-12T02:25:33.665Z,12.50
2017-10-12T02:27:59.810Z,12.50
2017-10-12T02:30:26.005Z,12.50
2017-10-12T02:32:52.176Z,12.50
2017-10-12T02:35:18.333Z,12.50
2017-10-12T02:37:44.543Z,12.50
2017-10-12T02:40:10.704Z,12.50
2017-10-12T02:42:37.629Z,12.50
2017-10-12T02:45:03.821Z,12.40
2017-10-12T02:47:30.028Z,12.40
2017-10-12T02:49:56.243Z,12.40
2017-10-12T02:52:22.426Z,12.30
2017-10-12T02:54:48.590Z,12.30
2017-10-12T02:57:14.798Z,12.30
2017-10-12T02:59:42.600Z,12.20
2017-10-12T03:02:08.903Z,12.20
2017-10-12T03:04:35.091Z,12.20
2017-10-12T03:07:01.242Z,12.20
2017-10-12T03:09:27.824Z,12.20
2017-10-12T03:11:53.982Z,12.30
2017-10-12T03:14:20.140Z,12.20
2017-10-12T03:16:47.384Z,12.10
2017-10-12T03:19:14.322Z,12.20
2017-10-12T03:21:40.479Z,12.20
2017-10-12T03:24:06.668Z,12.10
2017-10-12T03:26:32.875Z,12.10
2017-10-12T03:28:59.025Z,12.20
2017-10-12T03:31:25.274Z,12.20
2017-10-12T03:33:51.481Z,12.30
2017-10-12T03:36:17.683Z,12.30
2017-10-12T03:38:44.143Z,12.30
2017-10-12T03:41:10.465Z,12.30
2017-10-12T03:43:36.661Z,12.30
2017-10-12T03:46:02.893Z,12.30
2017-10-12T03:48:29.080Z,12.30
2017-10-12T03:50:56.025Z,12.40
2017-10-12T03:53:22.186Z,12.30
2017-10-12T03:55:48.375Z,12.40
2017-10-12T03:58:14.571Z,12.40
2017-10-12T04:00:40.742Z,12.40
2017-10-12T04:03:07.686Z,12.40
2017-10-12T04:05:34.604Z,12.40
2017-10-12T04:08:01.531Z,12.50
2017-10-12T04:10:27.684Z,12.40
2017-10-12T04:12:53.915Z,12.40
2017-10-12T04:15:20.123Z,12.50
2017-10-12T04:17:46.286Z,12.50
2017-10-12T04:20:13.204Z,12.50
2017-10-12T04:22:39.359Z,12.50
2017-10-12T04:25:05.511Z,12.50
2017-10-12T04:27:31.745Z,12.50
2017-10-12T04:29:57.917Z,12.60
2017-10-12T04:32:24.357Z,12.60
2017-10-12T04:34:50.527Z,12.60
2017-10-12T04:37:16.854Z,12.60
2017-10-12T04:39:42.986Z,12.60
2017-10-12T04:42:09.291Z,12.60
2017-10-12T04:44:35.843Z,12.50
2017-10-12T04:47:02.769Z,12.40
2017-10-12T04:49:28.927Z,12.40
2017-10-12T04:51:55.110Z,12.50
2017-10-12T04:54:21.997Z,12.50
2017-10-12T04:56:48.184Z,12.50
2017-10-12T04:59:14.364Z,12.50
2017-10-12T05:01:41.342Z,12.40
2017-10-12T05:04:07.487Z,12.40
2017-10-12T05:06:33.678Z,12.40
2017-10-12T05:08:59.819Z,12.50
2017-10-12T05:11:25.963Z,12.40
2017-10-12T05:13:52.200Z,12.50
2017-10-12T05:16:18.382Z,12.40
2017-10-12T05:18:44.538Z,12.50
2017-10-12T05:21:10.695Z,12.50
2017-10-12T05:23:36.828Z,12.50
2017-10-12T05:26:03.014Z,12.50
2017-10-12T05:28:29.214Z,12.50
2017-10-12T05:30:56.254Z,12.60
2017-10-12T05:33:22.433Z,12.60
2017-10-12T05:35:48.604Z,12.60
2017-10-12T05:38:14.813Z,12.60
2017-10-12T05:40:41.006Z,12.50
2017-10-12T05:43:08.054Z,12.70
2017-10-12T05:45:34.235Z,12.70
2017-10-12T05:48:00.477Z,12.80
2017-10-12T05:50:26.656Z,12.80
2017-10-12T05:52:52.832Z,12.90
2017-10-12T05:55:19.061Z,13.00
2017-10-12T05:57:45.290Z,12.90
2017-10-12T06:00:11.524Z,12.80
2017-10-12T06:02:37.694Z,12.70
2017-10-12T06:05:04.061Z,12.70
2017-10-12T06:07:30.307Z,12.70
2017-10-12T06:09:56.538Z,12.60
2017-10-12T06:12:22.733Z,12.70
2017-10-12T06:14:48.980Z,12.60
2017-10-12T06:17:15.153Z,12.60
2017-10-12T06:19:41.361Z,12.60
2017-10-12T06:22:07.601Z,12.50
2017-10-12T06:24:33.858Z,12.40
2017-10-12T06:27:00.021Z,12.40
2017-10-12T06:29:27.024Z,12.40
2017-10-12T06:31:53.974Z,12.50
2017-10-12T06:34:20.208Z,12.40
2017-10-12T06:36:46.480Z,12.50
2017-10-12T06:39:12.636Z,12.60
2017-10-12T06:41:38.879Z,12.60
2017-10-12T06:44:05.053Z,12.70
2017-10-12T06:46:31.257Z,12.70
2017-10-12T06:48:57.479Z,12.70
2017-10-12T06:51:23.684Z,12.70
2017-10-12T06:53:49.871Z,12.80
2017-10-12T06:56:16.083Z,12.80
2017-10-12T06:58:42.987Z,12.90
2017-10-12T07:01:09.217Z,12.90
2017-10-12T07:03:35.423Z,12.90
2017-10-12T07:06:01.672Z,13.00
2017-10-12T07:08:27.896Z,13.00
2017-10-12T07:10:54.108Z,13.00
2017-10-12T07:13:20.374Z,13.00
2017-10-12T07:15:46.543Z,13.00
2017-10-12T07:18:12.743Z,13.00
2017-10-12T07:20:38.938Z,13.10
2017-10-12T07:23:05.859Z,13.10
2017-10-12T07:25:32.763Z,13.20
2017-10-12T07:27:59.055Z,13.20
2017-10-12T07:30:25.242Z,13.30
2017-10-12T07:32:51.398Z,13.30
2017-10-12T07:35:17.606Z,13.40
2017-10-12T07:37:43.815Z,13.50
2017-10-12T07:40:10.122Z,13.60
2017-10-12T07:42:36.292Z,13.70
2017-10-12T07:45:02.488Z,13.90
2017-10-12T07:47:28.672Z,13.90
2017-10-12T07:49:54.846Z,14.00
2017-10-12T07:52:21.031Z,14.00
2017-10-12T07:54:47.948Z,14.20
2017-10-12T07:57:14.175Z,14.20
2017-10-12T07:59:41.094Z,14.50
2017-10-12T08:02:08.012Z,14.60
2017-10-12T08:04:34.208Z,14.60
2017-10-12T08:07:00.401Z,14.70
2017-10-12T08:09:26.566Z,14.80
2017-10-12T08:11:52.766Z,15.00
2017-10-12T08:14:18.987Z,15.20
2017-10-12T08:16:45.174Z,15.30
2017-10-12T08:19:11.355Z,15.30
2017-10-12T08:21:37.568Z,15.40
2017-10-12T08:24:03.730Z,15.50
2017-10-12T08:26:29.958Z,15.60
2017-10-12T08:28:56.400Z,15.60
2017-10-12T08:31:22.634Z,15.70
2017-10-12T08:33:48.798Z,15.70
2017-10-12T08:36:15.724Z,15.90
2017-10-12T08:38:42.676Z,16.00
2017-10-12T08:41:09.578Z,16.00
2017-10-12T08:43:36.491Z,16.10
2017-10-12T08:46:02.652Z,16.00
2017-10-12T08:48:28.868Z,16.10
2017-10-12T08:50:55.064Z,16.20
2017-10-12T08:53:21.995Z,16.30
2017-10-12T08:55:48.128Z,16.30
2017-10-12T08:58:14.330Z,16.40
2017-10-12T09:00:40.485Z,16.50
2017-10-12T09:03:06.682Z,16.50
2017-10-12T09:05:32.831Z,16.60
2017-10-12T09:07:59.046Z,16.60
2017-10-12T09:10:25.258Z,16.70
2017-10-12T09:12:51.461Z,16.70
2017-10-12T09:15:17.610Z,16.80
2017-10-12T09:17:43.838Z,16.90
2017-10-12T09:20:09.978Z,16.90
2017-10-12T09:22:36.194Z,16.90
2017-10-12T09:25:02.416Z,16.90
2017-10-12T09:27:28.599Z,16.90
2017-10-12T09:29:54.771Z,16.90
2017-10-12T09:32:21.762Z,16.90
2017-10-12T09:34:48.044Z,16.90
2017-10-12T09:37:14.259Z,17.00
2017-10-12T09:39:40.489Z,17.10
2017-10-12T09:42:06.714Z,17.10
2017-10-12T09:44:32.910Z,17.20
2017-10-12T09:46:59.119Z,17.20
2017-10-12T09:49:25.429Z,17.20
2017-10-12T09:51:51.580Z,17.30
2017-10-12T09:54:17.766Z,17.30
2017-10-12T09:56:43.971Z,17.50
2017-10-12T09:59:10.213Z,17.50
2017-10-12T10:01:36.422Z,17.60
2017-10-12T10:04:02.669Z,17.70
2017-10-12T10:06:28.943Z,17.80
2017-10-12T10:08:55.143Z,17.80
2017-10-12T10:11:21.419Z,17.80
2017-10-12T10:13:48.437Z,17.80
2017-10-12T10:16:14.613Z,17.80
2017-10-12T10:18:41.038Z,17.80
2017-10-12T10:21:07.199Z,17.90
2017-10-12T10:23:33.410Z,17.90
2017-10-12T10:26:00.398Z,18.00
2017-10-12T10:28:26.618Z,17.90
2017-10-12T10:30:52.829Z,17.90
2017-10-12T10:33:19.067Z,18.00
2017-10-12T10:35:45.258Z,18.10
2017-10-12T10:38:11.635Z,18.10
2017-10-12T10:40:37.888Z,18.10
2017-10-12T10:43:04.082Z,18.20
2017-10-12T10:45:30.241Z,18.30
2017-10-12T10:47:56.412Z,18.30
2017-10-12T10:50:22.663Z,18.20
2017-10-12T10:52:49.610Z,18.20
2017-10-12T10:55:15.827Z,18.20
2017-10-12T10:57:42.740Z,18.10
2017-10-12T11:00:08.966Z,18.10
2017-10-12T11:02:35.913Z,17.90
2017-10-12T11:05:02.145Z,17.90
2017-10-12T11:07:28.335Z,17.90
2017-10-12T11:09:54.551Z,17.90
2017-10-12T11:12:20.748Z,18.00
2017-10-12T11:14:47.014Z,18.10
2017-10-12T11:17:13.291Z,18.20
2017-10-12T11:19:39.561Z,18.50
2017-10-12T11:22:05.767Z,18.50
2017-10-12T11:24:32.010Z,18.70
2017-10-12T11:26:58.971Z,18.90
2017-10-12T11:29:25.183Z,18.90
2017-10-12T11:31:51.371Z,19.00
2017-10-12T11:34:18.311Z,19.10
2017-10-12T11:36:46.407Z,19.10
2017-10-12T11:39:12.640Z,19.10
2017-10-12T11:41:38.791Z,19.00
2017-10-12T11:44:05.739Z,19.10
2017-10-12T11:46:31.930Z,19.10
2017-10-12T11:48:58.832Z,19.10
2017-10-12T11:51:25.078Z,19.10
2017-10-12T11:53:52.018Z,19.00
2017-10-12T11:56:18.175Z,18.90
2017-10-12T11:58:44.408Z,19.00
2017-10-12T12:01:10.626Z,19.00
2017-10-12T12:03:36.840Z,19.10
2017-10-12T12:06:03.012Z,19.20
2017-10-12T12:08:29.238Z,19.30
2017-10-12T12:10:55.466Z,19.30
2017-10-12T12:13:21.638Z,19.10
2017-10-12T12:15:47.829Z,19.10
2017-10-12T12:18:14.227Z,19.10
2017-10-12T12:20:40.475Z,19.10
2017-10-12T12:23:06.735Z,19.10
2017-10-12T12:25:32.931Z,19.10
2017-10-12T12:27:59.160Z,19.10
2017-10-12T12:30:25.394Z,19.00
2017-10-12T12:32:51.726Z,19.00
2017-10-12T12:35:17.955Z,19.00
2017-10-12T12:37:44.151Z,19.00
2017-10-12T12:40:11.062Z,19.10
2017-10-12T12:42:37.229Z,19.10
2017-10-12T12:45:03.430Z,19.10
2017-10-12T12:47:29.624Z,19.10
2017-10-12T12:49:55.856Z,19.10
2017-10-12T12:52:22.055Z,19.10
2017-10-12T12:54:48.271Z,19.10
2017-10-12T12:57:14.459Z,19.10
2017-10-12T12:59:40.672Z,19.10
2017-10-12T13:02:07.632Z,19.10
2017-10-12T13:04:33.807Z,19.10
2017-10-12T13:07:00.024Z,19.10
2017-10-12T13:09:26.981Z,19.00
2017-10-12T13:11:53.190Z,19.00
2017-10-12T13:14:19.442Z,19.00
2017-10-12T13:16:45.623Z,19.00
2017-10-12T13:19:11.914Z,19.00
2017-10-12T13:21:38.718Z,19.00
2017-10-12T13:24:04.900Z,18.90
2017-10-12T13:26:31.131Z,18.80
2017-10-12T13:28:57.327Z,18.70
2017-10-12T13:31:24.242Z,18.80
2017-10-12T13:33:50.428Z,18.80
2017-10-12T13:36:16.661Z,18.70
2017-10-12T13:38:43.024Z,18.80
2017-10-12T13:41:09.178Z,18.70
2017-10-12T13:43:35.383Z,18.80
2017-10-12T13:46:01.559Z,18.70
2017-10-12T13:48:27.762Z,18.70
2017-10-12T13:50:53.943Z,18.70
2017-10-12T13:53:20.137Z,18.70
2017-10-12T13:55:47.064Z,18.70
2017-10-12T13:58:13.418Z,18.70
2017-10-12T14:00:39.617Z,18.70
2017-10-12T14:03:05.808Z,18.60
2017-10-12T14:05:32.029Z,18.60
2017-10-12T14:07:58.238Z,18.60
2017-10-12T14:10:25.223Z,18.60
2017-10-12T14:12:51.474Z,18.50
2017-10-12T14:15:18.449Z,18.60
2017-10-12T14:17:44.628Z,18.50
2017-10-12T14:20:10.920Z,18.60
2017-10-12T14:22:37.884Z,18.50
2017-10-12T14:25:04.107Z,18.50
2017-10-12T14:27:30.305Z,18.50
2017-10-12T14:29:56.548Z,18.60
2017-10-12T14:32:22.743Z,18.50
2017-10-12T14:34:48.922Z,18.50
2017-10-12T14:37:15.106Z,18.50
2017-10-12T14:39:41.290Z,18.50
2017-10-12T14:42:07.526Z,18.50
2017-10-12T14:44:33.685Z,18.40
2017-10-12T14:46:59.908Z,18.40
2017-10-12T14:49:26.103Z,18.40
2017-10-12T14:51:52.354Z,18.40
2017-10-12T14:54:18.564Z,18.30
2017-10-12T14:56:44.776Z,18.40
2017-10-12T14:59:10.987Z,18.30
2017-10-12T15:01:37.201Z,18.30
2017-10-12T15:04:03.430Z,18.30
2017-10-12T15:06:29.622Z,18.30
2017-10-12T15:08:55.842Z,18.30
2017-10-12T15:11:22.043Z,18.30
2017-10-12T15:13:48.243Z,18.20
2017-10-12T15:16:14.434Z,18.20
2017-10-12T15:18:40.684Z,18.20
2017-10-12T15:21:06.931Z,18.20
2017-10-12T15:23:33.221Z,18.20
2017-10-12T15:25:59.397Z,18.20
2017-10-12T15:28:25.603Z,18.20
2017-10-12T15:30:51.855Z,18.20
2017-10-12T15:33:18.122Z,18.20
2017-10-12T15:35:45.028Z,18.20
2017-10-12T15:38:11.216Z,18.20
2017-10-12T15:40:37.412Z,18.20
2017-10-12T15:43:03.591Z,18.10
2017-10-12T15:45:29.871Z,18.10
2017-10-12T15:47:56.113Z,18.00
2017-10-12T15:50:22.271Z,18.00
2017-10-12T15:52:48.446Z,18.00
2017-10-12T15:55:14.642Z,18.00
2017-10-12T15:57:40.828Z,18.00
2017-10-12T16:00:07.842Z,17.90
2017-10-12T16:02:33.981Z,17.90
2017-10-12T16:05:00.160Z,17.90
2017-10-12T16:07:26.335Z,17.80
2017-10-12T16:09:52.512Z,17.80
2017-10-12T16:12:18.703Z,17.80
2017-10-12T16:14:44.937Z,17.80
2017-10-12T16:17:11.146Z,17.70
2017-10-12T16:19:37.357Z,17.70
2017-10-12T16:22:05.466Z,17.70
2017-10-12T16:24:31.707Z,17.60
2017-10-12T16:26:57.877Z,17.60
2017-10-12T16:29:24.123Z,17.40
2017-10-12T16:31:50.349Z,17.30
2017-10-12T16:34:16.577Z,17.10
2017-10-12T16:36:42.793Z,17.00
2017-10-12T16:39:09.063Z,16.90
2017-10-12T16:41:36.520Z,16.80
2017-10-12T16:44:02.736Z,16.70
2017-10-12T16:46:29.000Z,16.60
2017-10-12T16:48:55.181Z,16.50
2017-10-12T16:51:21.430Z,16.40
2017-10-12T16:53:47.620Z,16.40
2017-10-12T16:56:13.968Z,16.30
2017-10-12T16:58:40.195Z,16.30
2017-10-12T17:01:06.438Z,16.20
2017-10-12T17:03:32.662Z,16.10
2017-10-12T17:05:58.895Z,16.10
2017-10-12T17:08:25.841Z,15.90
2017-10-12T17:10:52.090Z,15.90
2017-10-12T17:13:18.293Z,15.80
2017-10-12T17:15:44.500Z,15.80
2017-10-12T17:18:10.900Z,15.70
2017-10-12T17:20:37.258Z,15.70
2017-10-12T17:23:03.561Z,15.70
2017-10-12T17:25:29.918Z,15.60
2017-10-12T17:27:56.868Z,15.40
2017-10-12T17:30:24.160Z,15.30
2017-10-12T17:32:51.184Z,15.10
2017-10-12T17:35:17.413Z,15.20
2017-10-12T17:37:43.623Z,15.10
2017-10-12T17:40:09.864Z,15.10
2017-10-12T17:42:36.107Z,15.00
2017-10-12T17:45:02.546Z,15.00
2017-10-12T17:47:28.754Z,14.90
2017-10-12T17:49:54.984Z,14.80
2017-10-12T17:52:21.184Z,14.80
2017-10-12T17:54:47.421Z,14.80
2017-10-12T17:57:13.801Z,14.80
2017-10-12T17:59:40.064Z,14.80
2017-10-12T18:02:06.244Z,14.60
2017-10-12T18:04:47.365Z,14.50
2017-10-12T18:06:58.701Z,14.30
2017-10-12T18:09:24.992Z,14.30
2017-10-12T18:14:17.815Z,14.20
2017-10-12T18:16:44.244Z,14.10
2017-10-12T18:19:10.451Z,14.10
2017-10-12T18:21:36.702Z,14.10
2017-10-12T18:24:02.929Z,14.10
2017-10-12T18:26:29.881Z,14.20
2017-10-12T18:28:56.143Z,14.20
2017-10-12T18:31:22.351Z,14.30
2017-10-12T18:33:48.546Z,14.40
2017-10-12T18:36:14.854Z,14.50
2017-10-12T18:38:41.169Z,14.50
2017-10-12T18:41:07.359Z,14.50
2017-10-12T18:43:33.550Z,14.60
2017-10-12T18:45:59.705Z,14.60
2017-10-12T18:48:25.901Z,14.60
2017-10-12T18:50:52.109Z,14.60
2017-10-12T18:53:18.775Z,14.60
2017-10-12T18:55:44.977Z,14.60
2017-10-12T18:58:11.455Z,14.60
2017-10-12T19:00:38.488Z,14.60
2017-10-12T19:03:05.535Z,14.60
2017-10-12T19:05:31.686Z,14.60
2017-10-12T19:07:57.895Z,14.60
2017-10-12T19:10:24.093Z,14.50
2017-10-12T19:12:50.661Z,14.60
2017-10-12T19:15:16.888Z,14.60
2017-10-12T19:17:43.072Z,14.60
2017-10-12T19:20:09.381Z,14.70
2017-10-12T19:22:35.624Z,14.70
2017-10-12T19:25:01.958Z,14.70
2017-10-12T19:27:28.219Z,14.70
2017-10-12T19:29:54.457Z,14.70
2017-10-12T19:32:20.687Z,14.70
2017-10-12T19:34:46.943Z,14.70
2017-10-12T19:37:13.167Z,14.70
2017-10-12T19:39:39.393Z,14.70
2017-10-12T19:42:05.560Z,14.70
2017-10-12T19:44:31.806Z,14.60
2017-10-12T19:46:57.979Z,14.60
2017-10-12T19:49:24.232Z,14.60
2017-10-12T19:51:51.281Z,14.60
2017-10-12T19:54:17.414Z,14.60
2017-10-12T19:56:43.600Z,14.60
2017-10-12T19:59:09.785Z,14.60
2017-10-12T20:01:36.579Z,14.50
2017-10-12T20:04:03.491Z,14.40
2017-10-12T20:06:29.734Z,14.40
2017-10-12T20:08:55.952Z,14.40
2017-10-12T20:11:22.172Z,14.40
2017-10-12T20:18:40.952Z,14.30
2017-10-12T20:21:07.125Z,14.30
2017-10-12T20:23:33.359Z,14.30
2017-10-12T20:25:59.611Z,14.30
2017-10-12T20:28:25.833Z,14.30
2017-10-12T20:30:52.040Z,14.30
2017-10-12T20:33:18.275Z,14.20
2017-10-12T20:35:46.033Z,14.20
2017-10-12T20:38:12.315Z,14.20
2017-10-12T20:40:38.529Z,14.10
2017-10-12T20:43:04.833Z,14.10
2017-10-12T20:45:31.223Z,14.10
2017-10-12T20:47:57.451Z,14.10
2017-10-12T20:50:23.674Z,14.00
2017-10-12T20:52:49.908Z,14.00
2017-10-12T20:55:16.371Z,14.00
2017-10-12T20:57:42.596Z,13.90
2017-10-12T21:00:08.920Z,13.80
2017-10-12T21:02:50.181Z,13.80
2017-10-12T21:05:01.462Z,13.80
2017-10-12T21:07:27.830Z,13.80
2017-10-12T21:09:54.202Z,13.60
2017-10-12T21:12:20.743Z,13.50
2017-10-12T21:14:48.376Z,13.60
2017-10-12T21:17:14.696Z,13.50
2017-10-12T21:19:42.406Z,13.40
2017-10-12T21:22:08.594Z,13.30
2017-10-12T21:24:34.819Z,13.20
2017-10-12T21:27:01.983Z,13.20
2017-10-12T21:29:28.172Z,13.10
2017-10-12T21:31:54.353Z,13.00
2017-10-12T21:34:20.607Z,13.00
2017-10-12T21:36:46.783Z,13.00
2017-10-12T21:39:12.966Z,12.90
2017-10-12T21:41:39.240Z,12.90
2017-10-12T21:44:05.408Z,12.90
2017-10-12T21:46:31.607Z,12.80
2017-10-12T21:48:57.772Z,12.80
2017-10-12T21:51:23.939Z,12.80
2017-10-12T21:53:50.891Z,12.70
2017-10-12T21:56:17.067Z,12.70
2017-10-12T21:58:43.304Z,12.70
2017-10-12T22:01:10.550Z,12.70
2017-10-12T22:03:36.765Z,12.60
2017-10-12T22:06:03.735Z,12.50
2017-10-12T22:08:29.879Z,12.50
2017-10-12T22:10:56.108Z,12.50
2017-10-12T22:13:22.299Z,12.60
2017-10-12T22:15:48.502Z,12.60
2017-10-12T22:18:14.682Z,12.60
2017-10-12T22:20:40.876Z,12.60
2017-10-12T22:23:07.055Z,12.60
2017-10-12T22:25:33.264Z,12.50
2017-10-12T22:27:59.517Z,12.50
2017-10-12T22:30:25.715Z,12.50
2017-10-12T22:32:52.749Z,12.40
2017-10-12T22:35:19.213Z,12.40
2017-10-12T22:37:45.564Z,12.40
2017-10-12T22:40:11.827Z,12.40
2017-10-12T22:42:38.076Z,12.40
2017-10-12T22:45:04.317Z,12.30
2017-10-12T22:47:31.523Z,12.20
2017-10-12T22:49:57.767Z,12.20
2017-10-12T22:52:24.707Z,12.10
2017-10-12T22:54:51.688Z,12.00
2017-10-12T22:57:17.909Z,12.00
2017-10-12T22:59:44.149Z,12.10
2017-10-12T23:02:10.434Z,12.00
2017-10-12T23:04:36.601Z,12.00
2017-10-12T23:07:03.609Z,11.90
2017-10-12T23:09:29.787Z,11.90
2017-10-12T23:11:55.979Z,11.90
2017-10-12T23:14:22.188Z,11.80
2017-10-12T23:16:48.378Z,11.80
2017-10-12T23:19:15.299Z,11.80
2017-10-12T23:21:42.242Z,11.80
2017-10-12T23:24:08.395Z,11.80
2017-10-12T23:26:34.687Z,11.80
2017-10-12T23:29:00.885Z,11.80
2017-10-12T23:31:27.063Z,11.80
2017-10-12T23:33:53.259Z,11.80
2017-10-12T23:36:19.452Z,11.80
2017-10-12T23:38:45.666Z,11.70
2017-10-12T23:41:11.856Z,11.80
2017-10-12T23:43:38.095Z,11.70
2017-10-12T23:46:04.264Z,11.70
2017-10-12T23:48:30.435Z,11.70
2017-10-12T23:50:56.579Z,11.70
2017-10-12T23:53:23.513Z,11.60
2017-10-12T23:55:50.456Z,11.60
2017-10-12T23:58:16.767Z,11.60
